FW2088 Weather Reports


time (UTC)temp
C
wind
direction
speed
KPH
gust
KPH
rain 1hr
cm
rain 24hr
cm
rain mn
cm
humidity
%
barometer
mb
20200229063208 19 221 0.0 0.0 0.00 0.00 0.00 54 1020.2
20200229061701 19 221 0.0 4.8 0.00 0.00 0.00 54 1020.2
20200229060413 20 221 0.0 0.0 0.00 0.00 0.00 53 1020.2
20200229054737 20 221 3.2 6.4 0.00 0.00 0.00 52 1020.3
20200229053214 20 255 3.2 6.4 0.00 0.00 0.00 50 1020.4
20200229051703 20 310 3.2 6.4 0.00 0.00 0.00 50 1020.4
20200229050333 20 348 3.2 8.0 0.00 0.00 0.00 50 1020.3
20200229044608 20 342 4.8 9.7 0.00 0.00 0.00 49 1020.4
20200229043230 20 334 4.8 12.9 0.00 0.00 0.00 50 1020.4
20200229041644 20 327 4.8 12.9 0.00 0.00 0.00 51 1020.5
20200229040142 20 27 4.8 9.7 0.00 0.00 0.00 52 1020.4
20200229034604 19 349 1.6 6.4 0.00 0.00 0.00 56 1020.3
20200229033221 20 360 4.8 8.0 0.00 0.00 0.00 56 1020.2
20200229031636 20 22 4.8 9.7 0.00 0.00 0.00 57 1020.1
20200229030150 20 43 4.8 12.9 0.00 0.00 0.00 63 1020.1
20200229024618 20 46 4.8 11.3 0.00 0.00 0.00 72 1019.8
20200229023340 20 5 3.2 11.3 0.00 0.00 0.00 70 1019.7
20200229021631 20 217 0.0 3.2 0.00 0.00 0.00 76 1019.4
20200229020152 20 217 0.0 0.0 0.00 0.00 0.00 76 1019.3
20200229014630 21 217 0.0 3.2 0.00 0.00 0.00 73 1019.1
20200229013138 21 217 0.0 3.2 0.00 0.00 0.00 71 1018.9
20200229011605 21 218 1.6 8.0 0.00 0.00 0.00 70 1019.0
20200229010132 22 203 3.2 9.7 0.00 0.00 0.00 64 1019.0
20200229004635 22 209 4.8 12.9 0.00 0.00 0.00 56 1018.9
20200229003059 23 181 3.2 9.7 0.00 0.00 0.00 55 1018.7
20200229001600 24 195 6.4 14.5 0.00 0.00 0.00 53 1018.5
20200229000100 25 165 6.4 11.3 0.00 0.00 0.00 43 1018.4
20200228234611 26 180 3.2 9.7 0.00 0.00 0.00 38 1018.3
20200228233109 26 198 6.4 11.3 0.00 0.00 0.00 40 1018.3
20200228231559 27 175 3.2 8.0 0.00 0.00 0.00 40 1018.2
20200228230116 27 140 3.2 9.7 0.00 0.00 0.00 39 1018.3
20200228224608 27 127 4.8 11.3 0.00 0.00 0.00 26 1018.3
20200228223134 27 180 4.8 11.3 0.00 0.00 0.00 31 1018.1
20200228221621 27 155 0.0 6.4 0.00 0.00 0.00 31 1018.1
20200228220114 26 140 1.6 9.7 0.00 0.00 0.00 37 1018.1
20200228214633 26 180 3.2 9.7 0.00 0.00 0.00 39 1018.1
20200228213040 26 172 4.8 11.3 0.00 0.00 0.00 40 1018.1
20200228211614 25 157 4.8 9.7 0.00 0.00 0.00 40 1018.4
20200228210134 25 141 4.8 12.9 0.00 0.00 0.00 44 1018.7
20200228204603 25 139 4.8 11.3 0.00 0.00 0.00 45 1018.8
20200228203033 25 165 6.4 14.5 0.00 0.00 0.00 46 1019.0
20200228201536 26 190 6.4 12.9 0.00 0.00 0.00 46 1019.4
20200228200056 26 211 6.4 12.9 0.00 0.00 0.00 40 1019.8
20200228194541 25 155 4.8 16.1 0.00 0.00 0.00 40 1020.0
20200228193031 25 148 4.8 12.9 0.00 0.00 0.00 29 1020.0
20200228191545 24 146 3.2 12.9 0.00 0.00 0.00 36 1020.1
20200228190040 24 68 6.4 12.9 0.00 0.00 0.00 34 1020.1
20200228184520 25 94 4.8 11.3 0.00 0.00 0.00 31 1020.6
20200228183013 25 86 4.8 12.9 0.00 0.00 0.00 28 1020.8
20200228181510 25 111 1.6 9.7 0.00 0.00 0.00 29 1020.9
20200228180002 25 80 4.8 12.9 0.00 0.00 0.00 31 1021.1
20200228174642 25 92 6.4 12.9 0.00 0.00 0.00 28 1021.0
20200228173220 25 90 4.8 14.5 0.00 0.00 0.00 30 1021.0
20200228171704 25 38 4.8 12.9 0.00 0.00 0.00 22 1021.1
20200228170103 23 82 8.0 24.1 0.00 0.00 0.00 24 1021.2
20200228164555 23 39 6.4 16.1 0.00 0.00 0.00 25 1021.2
20200228163104 22 25 4.8 12.9 0.00 0.00 0.00 28 1021.2
20200228161628 22 26 4.8 16.1 0.00 0.00 0.00 28 1021.0
20200228160047 21 9 1.6 14.5 0.00 0.00 0.00 32 1020.8
20200228154545 21 38 3.2 12.9 0.00 0.00 0.00 36 1020.6
20200228153028 20 227 0.0 3.2 0.00 0.00 0.00 56 1020.4
20200228151520 18 227 0.0 6.4 0.00 0.00 0.00 74 1020.4
20200228150015 17 225 0.0 4.8 0.00 0.00 0.00 74 1020.1
20200228144516 16 224 0.0 3.2 0.00 0.00 0.00 77 1019.9
20200228143005 16 224 0.0 4.8 0.00 0.00 0.00 80 1019.8
20200228141631 15 224 0.0 4.8 0.00 0.00 0.00 80 1019.7
20200228140136 15 222 0.0 1.6 0.00 0.00 0.00 80 1019.6
20200228134731 15 281 0.0 1.6 0.00 0.00 0.00 83 1019.6
20200228133127 15 281 0.0 3.2 0.00 0.00 0.00 83 1019.4
20200228131640 15 269 4.8 8.0 0.00 0.00 0.00 84 1019.4
20200228130153 15 283 3.2 6.4 0.00 0.00 0.00 84 1019.1
20200228124621 15 326 0.0 3.2 0.00 0.00 0.00 80 1018.9
20200228123113 15 333 0.0 4.8 0.00 0.00 0.00 80 1018.8
20200228121740 15 338 0.0 3.2 0.00 0.00 0.00 82 1018.8
20200228120129 15 345 0.0 8.0 0.00 0.00 0.00 82 1018.8
20200228114656 15 309 3.2 6.4 0.00 0.00 0.00 82 1018.8
20200228113120 16 327 1.6 12.9 0.00 0.00 0.00 76 1018.9
20200228111611 17 10 9.7 14.5 0.00 0.00 0.00 55 1018.5
20200228110055 17 304 1.6 8.0 0.00 0.00 0.00 51 1018.5
20200228104701 17 316 1.6 8.0 0.00 0.00 0.00 54 1018.4
20200228103108 16 290 4.8 9.7 0.00 0.00 0.00 57 1018.5
20200228101643 16 295 4.8 9.7 0.00 0.00 0.00 60 1018.7
20200228100044 16 313 4.8 12.9 0.00 0.00 0.00 63 1018.8
20200228094659 16 5 4.8 12.9 0.00 0.00 0.00 64 1018.9
20200228093151 15 10 1.6 9.7 0.00 0.00 0.00 81 1019.2
20200228091533 17 280 0.0 6.4 0.00 0.00 0.00 76 1019.3
20200228090030 17 302 8.0 12.9 0.00 0.00 0.00 66 1019.6
20200228084533 17 360 4.8 16.1 0.00 0.00 0.00 66 1019.5
20200228083043 16 331 4.8 9.7 0.00 0.00 0.00 74 1019.6
20200228081547 16 328 1.6 8.0 0.00 0.00 0.00 77 1019.6
20200228080032 16 16 1.6 4.8 0.00 0.00 0.00 81 1019.8
20200228074524 16 16 3.2 9.7 0.00 0.00 0.00 77 1019.8
20200228073143 17 5 3.2 12.9 0.00 0.00 0.00 72 1019.8
20200228071515 16 313 4.8 9.7 0.00 0.00 0.00 76 1019.8
20200228070016 16 322 3.2 9.7 0.00 0.00 0.00 75 1019.9
20200228064520 16 319 8.0 14.5 0.00 0.00 0.00 75 1019.8